Time;durP1;ratioP1;P1;durP2;ratioP2;P2;SDS_P1;SDS_P2;PMS_P1;PMS_P2;Temp;Humidity;BMP_temperature;BMP_pressure;BME280_temperature;BME280_humidity;BME280_pressure;Samples;Min_cycle;Max_cycle;Signal;HPM_P1;HPM_P2
2022/10/21 04:48:10;;;;;;;;;6.00;4.25;;;;;17.32;73.64;100119.03;5273016;23;45934;-64
2022/10/21 04:50:35;;;;;;;;;7.25;7.00;;;;;17.33;73.56;100118.09;4981576;28;45554;-64
2022/10/21 04:53:00;;;;;;;;;5.25;4.00;;;;;17.38;73.70;100137.31;4981369;28;46146;-63
2022/10/21 04:55:25;;;;;;;;;4.25;4.25;;;;;17.40;73.48;100132.78;4981695;28;45435;-63
2022/10/21 04:57:51;;;;;;;;;5.00;3.50;;;;;17.42;73.61;100140.66;4970236;28;45357;-63
2022/10/21 05:00:16;;;;;;;;;10.75;4.00;;;;;17.43;73.60;100135.28;4962248;28;45595;-66
2022/10/21 05:02:42;;;;;;;;;5.25;5.00;;;;;17.45;73.75;100144.03;4962498;28;45457;-64
2022/10/21 05:05:07;;;;;;;;;4.50;4.50;;;;;17.46;73.53;100140.44;4962174;28;45261;-62
2022/10/21 05:07:33;;;;;;;;;2.75;2.75;;;;;17.50;73.40;100143.78;4944570;28;45393;-64
2022/10/21 05:09:58;;;;;;;;;7.25;6.00;;;;;17.49;73.65;100145.56;4962116;28;45373;-64
2022/10/21 05:12:23;;;;;;;;;4.00;3.50;;;;;17.51;73.77;100151.69;4962109;28;45378;-65
2022/10/21 05:14:48;;;;;;;;;4.00;3.25;;;;;17.53;73.58;100151.59;4961773;28;45333;-63
2022/10/21 05:17:14;;;;;;;;;5.75;3.00;;;;;17.50;73.47;100141.97;4958015;28;45310;-63
2022/10/21 05:19:39;;;;;;;;;2.50;2.50;;;;;17.52;73.85;100133.94;4962766;28;45653;-66
2022/10/21 05:22:04;;;;;;;;;3.75;2.00;;;;;17.49;73.83;100147.38;4974445;28;53937;-65
2022/10/21 05:24:30;;;;;;;;;3.00;3.00;;;;;17.50;73.75;100144.63;4977796;28;45448;-66
2022/10/21 05:26:55;;;;;;;;;5.25;4.00;;;;;17.50;73.64;100147.28;4975451;28;45447;-66
2022/10/21 05:29:20;;;;;;;;;4.75;3.50;;;;;17.47;73.86;100133.31;4980003;28;45369;-63
2022/10/21 05:31:46;;;;;;;;;3.00;3.00;;;;;17.50;73.88;100131.34;4977832;28;45194;-65
2022/10/21 05:34:11;;;;;;;;;5.75;3.00;;;;;17.51;73.83;100127.78;4979740;28;45229;-65
2022/10/21 05:36:36;;;;;;;;;3.25;3.25;;;;;17.50;73.72;100134.00;4977937;28;45192;-65
2022/10/21 05:39:02;;;;;;;;;3.00;3.00;;;;;17.54;73.68;100132.06;4979619;28;45443;-68
2022/10/21 05:41:27;;;;;;;;;3.75;3.75;;;;;17.54;73.67;100135.56;4970038;28;46292;-74
2022/10/21 05:43:53;;;;;;;;;4.25;4.25;;;;;17.57;73.28;100141.66;4971867;28;45402;-73
2022/10/21 05:46:18;;;;;;;;;3.00;2.00;;;;;17.58;73.63;100141.56;4971600;28;45396;-75
2022/10/21 05:48:43;;;;;;;;;3.75;3.25;;;;;17.61;73.52;100137.91;4977766;28;45259;-77
2022/10/21 05:51:09;;;;;;;;;3.25;3.25;;;;;17.62;73.58;100144.94;4977820;28;45703;-72
2022/10/21 05:53:34;;;;;;;;;2.00;2.00;;;;;17.64;73.60;100159.00;4979429;28;45378;-72
2022/10/21 05:56:03;;;;;;;;;3.00;3.00;;;;;17.65;73.69;100163.38;4978343;28;45218;-72
2022/10/21 05:58:29;;;;;;;;;3.00;3.00;;;;;17.66;73.53;100165.06;4977563;28;45412;-75
2022/10/21 06:00:55;;;;;;;;;4.25;3.25;;;;;17.68;73.42;100168.53;4975564;28;46297;-75
2022/10/21 06:03:22;;;;;;;;;5.00;3.00;;;;;17.69;73.42;100180.88;4978779;28;45450;-72
2022/10/21 06:05:48;;;;;;;;;2.50;2.50;;;;;17.72;73.43;100193.97;4978335;28;45384;-73
2022/10/21 06:08:14;;;;;;;;;4.25;4.00;;;;;17.74;73.42;100202.75;4976177;28;45530;-66
2022/10/21 06:10:39;;;;;;;;;2.25;2.00;;;;;17.73;73.49;100209.00;4962733;28;45381;-62
2022/10/21 06:13:04;;;;;;;;;2.50;2.25;;;;;17.74;73.42;100210.72;4961419;28;45366;-63
2022/10/21 06:15:30;;;;;;;;;2.00;2.00;;;;;17.75;73.50;100203.59;4961199;28;45439;-63
2022/10/21 06:17:55;;;;;;;;;4.00;4.00;;;;;17.76;73.58;100206.19;4961010;28;45445;-63
2022/10/21 06:20:20;;;;;;;;;2.00;2.00;;;;;17.77;73.45;100212.34;4959549;28;47235;-63
2022/10/21 06:22:46;;;;;;;;;3.25;3.25;;;;;17.77;73.64;100215.84;4960965;28;45379;-63
2022/10/21 06:25:11;;;;;;;;;4.25;4.25;;;;;17.74;73.66;100224.00;4961000;28;45524;-63
2022/10/21 06:27:39;;;;;;;;;6.25;6.00;;;;;17.77;73.75;100229.13;4959722;28;45698;-63
2022/10/21 06:30:05;;;;;;;;;7.00;6.00;;;;;17.76;73.54;100235.41;4960097;28;46385;-63
2022/10/21 06:32:31;;;;;;;;;1.00;1.00;;;;;17.78;73.68;100249.47;4955127;28;45408;-62
2022/10/21 06:34:57;;;;;;;;;5.00;5.00;;;;;17.79;73.63;100261.81;4955549;28;45388;-63
2022/10/21 06:37:22;;;;;;;;;5.00;5.00;;;;;17.82;73.22;100271.44;4955798;28;45480;-62
2022/10/21 06:39:47;;;;;;;;;3.50;3.00;;;;;17.82;73.75;100280.28;4956281;28;46114;-62
2022/10/21 06:42:14;;;;;;;;;7.00;5.00;;;;;17.83;73.55;100294.41;4955719;28;45175;-62
2022/10/21 06:44:40;;;;;;;;;4.75;3.50;;;;;17.80;73.54;100292.78;4956137;28;45260;-63
2022/10/21 06:47:06;;;;;;;;;6.75;4.25;;;;;17.83;73.60;100297.06;4955424;28;45681;-63
2022/10/21 06:49:31;;;;;;;;;4.00;4.00;;;;;17.82;73.67;100306.84;4954387;28;46199;-62
2022/10/21 06:51:56;;;;;;;;;5.75;4.00;;;;;17.81;73.67;100315.75;4955351;28;45321;-62
2022/10/21 06:54:22;;;;;;;;;4.25;2.75;;;;;17.81;73.57;100305.13;4958928;28;45381;-62
2022/10/21 06:56:47;;;;;;;;;5.00;4.00;;;;;17.81;73.75;100301.59;4960237;28;45393;-63
2022/10/21 06:59:12;;;;;;;;;8.00;8.00;;;;;17.80;73.66;100300.75;4959786;28;46285;-63
2022/10/21 07:01:38;;;;;;;;;4.00;4.00;;;;;17.80;73.75;100290.13;4954129;28;45568;-63
2022/10/21 07:04:04;;;;;;;;;7.00;7.00;;;;;17.79;73.86;100277.75;4961002;28;45425;-63
2022/10/21 07:06:30;;;;;;;;;8.00;7.00;;;;;17.81;73.83;100288.31;4961408;28;45987;-63
2022/10/21 07:08:55;;;;;;;;;6.25;5.75;;;;;17.82;73.62;100290.91;4961549;28;45509;-64
2022/10/21 07:11:20;;;;;;;;;6.00;5.00;;;;;17.74;73.42;100276.28;4960541;28;45682;-63
2022/10/21 07:13:46;;;;;;;;;6.25;6.00;;;;;17.83;73.59;100292.59;4962577;28;45380;-63
2022/10/21 07:16:20;;;;;;;;;6.00;5.00;;;;;17.83;73.84;100305.88;4963014;28;45258;-64
2022/10/21 07:18:46;;;;;;;;;6.75;4.75;;;;;17.82;73.72;100309.50;4963710;28;45459;-64
2022/10/21 07:21:16;;;;;;;;;7.00;7.00;;;;;17.80;74.05;100326.47;4963579;28;45190;-63
2022/10/21 07:23:43;;;;;;;;;8.00;6.00;;;;;17.78;73.62;100341.63;4964291;28;45274;-64
2022/10/21 07:26:08;;;;;;;;;11.00;8.00;;;;;17.76;73.34;100359.44;4961932;28;45495;-64
2022/10/21 07:28:34;;;;;;;;;7.25;6.25;;;;;17.75;73.72;100336.44;4963752;28;45956;-64
2022/10/21 07:31:00;;;;;;;;;6.00;4.50;;;;;17.73;73.76;100319.75;4963676;28;45341;-64
2022/10/21 07:33:26;;;;;;;;;6.75;5.25;;;;;17.72;73.70;100329.50;4963973;28;45326;-64
2022/10/21 07:35:51;;;;;;;;;5.25;3.50;;;;;17.68;73.88;100314.66;4963310;28;45558;-65
2022/10/21 07:38:17;;;;;;;;;4.75;4.00;;;;;17.63;74.00;100290.97;4963635;28;46778;-62
2022/10/21 07:40:43;;;;;;;;;5.50;4.50;;;;;17.66;74.13;100300.56;4963551;28;45256;-65
2022/10/21 07:43:10;;;;;;;;;7.00;4.75;;;;;17.64;73.73;100311.28;4964020;28;45171;-66
2022/10/21 07:45:41;;;;;;;;;5.00;4.25;;;;;17.66;74.12;100305.88;4963433;28;45350;-69
2022/10/21 07:48:08;;;;;;;;;6.25;5.25;;;;;17.67;73.87;100329.75;4963097;28;45376;-69
2022/10/21 07:50:35;;;;;;;;;6.75;4.00;;;;;17.67;74.12;100343.03;4963347;28;45262;-69
2022/10/21 07:53:01;;;;;;;;;4.00;4.00;;;;;17.67;73.87;100345.69;4963550;28;45389;-69
2022/10/21 07:55:27;;;;;;;;;4.50;3.50;;;;;17.70;73.98;100350.00;4963157;28;45598;-69
2022/10/21 07:57:52;;;;;;;;;3.00;3.00;;;;;17.67;73.97;100343.03;4962054;28;45980;-69
2022/10/21 08:00:17;;;;;;;;;5.75;3.50;;;;;17.66;73.97;100340.44;4963251;28;45367;-68
2022/10/21 08:02:43;;;;;;;;;3.00;3.00;;;;;17.65;74.03;100342.25;4963734;28;45286;-68
2022/10/21 08:05:08;;;;;;;;;5.00;2.00;;;;;17.63;73.97;100345.91;4962020;28;46065;-68
2022/10/21 08:07:34;;;;;;;;;4.25;4.00;;;;;17.61;73.95;100343.34;4962977;28;46356;-69
2022/10/21 08:09:59;;;;;;;;;5.00;3.50;;;;;17.64;74.03;100344.97;4961531;28;45283;-69
2022/10/21 08:12:25;;;;;;;;;5.75;4.50;;;;;17.64;74.19;100342.31;4963386;28;45480;-69
2022/10/21 08:14:50;;;;;;;;;8.25;6.75;;;;;17.64;74.06;100337.84;4962944;28;45171;-69
2022/10/21 08:17:16;;;;;;;;;5.25;5.25;;;;;17.65;73.87;100339.59;4963158;28;45322;-69
2022/10/21 08:19:41;;;;;;;;;4.25;4.00;;;;;17.64;74.08;100345.81;4962989;28;45251;-69
2022/10/21 08:22:06;;;;;;;;;6.00;4.00;;;;;17.68;73.99;100346.53;4963240;28;45310;-69
2022/10/21 08:24:32;;;;;;;;;6.00;6.00;;;;;17.70;74.02;100360.63;4962955;28;45217;-69
2022/10/21 08:26:57;;;;;;;;;5.75;4.00;;;;;17.71;73.80;100357.03;4962699;28;46899;-69
2022/10/21 08:29:23;;;;;;;;;5.50;3.50;;;;;17.74;73.95;100350.69;4962923;28;45299;-69
2022/10/21 08:31:48;;;;;;;;;6.00;6.00;;;;;17.77;74.06;100364.66;4963139;28;45321;-69
2022/10/21 08:34:13;;;;;;;;;5.75;3.25;;;;;17.79;74.14;100365.47;4962676;28;45349;-69
2022/10/21 08:36:39;;;;;;;;;3.25;3.00;;;;;17.81;74.20;100363.59;4961254;28;47159;-69
2022/10/21 08:39:05;;;;;;;;;4.50;3.25;;;;;17.80;74.70;100359.22;4962759;28;45225;-69
2022/10/21 08:41:33;;;;;;;;;7.75;6.00;;;;;17.80;74.38;100359.22;4962838;28;45328;-69
2022/10/21 08:44:04;;;;;;;;;7.50;6.00;;;;;17.81;74.73;100360.94;4962593;28;45484;-69
2022/10/21 08:46:45;;;;;;;;;5.25;5.25;;;;;17.82;74.22;100361.78;4962508;28;46112;-68
2022/10/21 08:49:27;;;;;;;;;5.50;3.50;;;;;17.85;74.28;100361.66;4962914;28;45307;-70
2022/10/21 08:52:02;;;;;;;;;2.00;2.00;;;;;17.87;74.69;100368.59;4961194;28;45339;-69
2022/10/21 08:54:44;;;;;;;;;3.25;2.25;;;;;17.91;74.49;100371.97;4962523;28;45503;-70
2022/10/21 08:57:11;;;;;;;;;2.00;2.00;;;;;17.95;74.52;100370.91;4961206;28;48058;-69
2022/10/21 08:59:40;;;;;;;;;4.00;3.75;;;;;17.97;74.83;100370.81;4962314;28;45318;-69
2022/10/21 09:02:12;;;;;;;;;4.25;2.50;;;;;18.06;74.48;100375.66;4962568;28;45441;-69
2022/10/21 09:05:04;;;;;;;;;2.00;2.00;;;;;18.12;74.31;100371.81;4962316;28;45324;-69
2022/10/21 09:07:54;;;;;;;;;4.00;3.00;;;;;18.18;74.42;100369.69;4961987;28;46360;-69
2022/10/21 09:10:31;;;;;;;;;4.00;3.00;;;;;18.27;74.70;100359.53;4962498;28;45342;-69
2022/10/21 09:13:28;;;;;;;;;3.00;3.00;;;;;18.32;74.55;100368.97;4962321;28;45293;-69
2022/10/21 09:16:14;;;;;;;;;3.75;2.50;;;;;18.41;74.44;100370.28;4944261;28;45331;-69
2022/10/21 09:18:51;;;;;;;;;2.00;2.00;;;;;18.52;74.64;100369.75;4962115;28;47133;-69
2022/10/21 09:21:50;;;;;;;;;3.75;3.00;;;;;18.60;74.79;100367.53;4960451;28;45473;-69
2022/10/21 09:24:34;;;;;;;;;3.25;3.00;;;;;18.69;74.53;100360.84;4962102;28;45579;-69
2022/10/21 09:27:02;;;;;;;;;5.75;3.00;;;;;18.76;74.41;100367.53;4961841;28;45546;-68
2022/10/21 09:29:36;;;;;;;;;3.00;3.00;;;;;18.81;74.81;100373.47;4961792;28;45240;-69
2022/10/21 09:32:20;;;;;;;;;2.75;2.75;;;;;18.92;74.65;100372.09;4961857;28;45573;-68
2022/10/21 09:34:48;;;;;;;;;4.75;2.00;;;;;19.00;74.82;100375.16;4961987;28;45371;-68
2022/10/21 09:37:46;;;;;;;;;2.50;2.50;;;;;19.03;74.97;100364.38;4961577;28;45204;-68
2022/10/21 09:40:16;;;;;;;;;4.25;4.25;;;;;19.05;74.55;100374.94;4961768;28;45499;-68
2022/10/21 09:42:41;;;;;;;;;3.00;3.00;;;;;19.08;74.78;100377.41;4961750;28;45297;-68
2022/10/21 09:45:15;;;;;;;;;2.00;2.00;;;;;19.09;73.85;100363.16;4961838;28;45292;-68
2022/10/21 09:47:40;;;;;;;;;4.00;4.00;;;;;19.15;74.10;100363.66;4961638;28;45308;-68
2022/10/21 09:50:15;;;;;;;;;4.00;3.00;;;;;19.23;74.09;100365.91;4961519;28;45266;-68
2022/10/21 09:52:56;;;;;;;;;3.75;3.75;;;;;19.28;73.79;100362.97;4960222;28;46252;-68
2022/10/21 09:55:22;;;;;;;;;6.75;3.00;;;;;19.28;73.98;100355.84;4961505;28;45374;-68
2022/10/21 09:57:55;;;;;;;;;4.25;3.25;;;;;19.37;73.75;100366.91;4961527;28;45308;-68
2022/10/21 10:00:20;;;;;;;;;3.75;3.50;;;;;19.39;73.98;100357.88;4960254;28;46847;-67
2022/10/21 10:02:47;;;;;;;;;4.50;2.25;;;;;19.46;73.81;100367.25;4961415;28;45438;-67
2022/10/21 10:05:41;;;;;;;;;5.75;3.50;;;;;19.50;74.04;100373.28;4961714;28;45524;-67
2022/10/21 10:08:28;;;;;;;;;4.50;3.75;;;;;19.53;73.41;100374.91;4961329;28;45428;-67
2022/10/21 10:11:13;;;;;;;;;3.25;3.25;;;;;19.56;73.80;100372.91;4961349;28;46185;-67
2022/10/21 10:13:46;;;;;;;;;5.25;4.00;;;;;19.58;73.24;100373.66;4961205;28;45687;-66
2022/10/21 10:16:21;;;;;;;;;3.50;3.50;;;;;19.63;73.53;100373.41;4961342;28;45277;-66
2022/10/21 10:18:47;;;;;;;;;4.00;4.00;;;;;19.69;73.37;100362.41;4961113;28;45426;-67
2022/10/21 10:21:18;;;;;;;;;4.50;4.00;;;;;19.72;72.95;100374.69;4959118;28;46258;-66
2022/10/21 10:23:51;;;;;;;;;6.75;4.00;;;;;19.75;73.29;100372.69;4961149;28;45247;-67
2022/10/21 10:26:27;;;;;;;;;7.25;5.75;;;;;19.78;72.85;100367.19;4960236;28;45257;-67
2022/10/21 10:29:14;;;;;;;;;6.00;5.25;;;;;19.87;73.04;100370.28;4957332;28;45489;-67
2022/10/21 10:31:45;;;;;;;;;5.00;5.00;;;;;19.88;72.40;100385.34;4946670;28;46832;-67
2022/10/21 10:34:20;;;;;;;;;7.00;5.00;;;;;19.98;72.34;100373.19;4959578;28;45333;-67
2022/10/21 10:36:47;;;;;;;;;5.00;5.00;;;;;19.92;72.05;100368.22;4957637;28;45172;-66
2022/10/21 10:39:27;;;;;;;;;4.75;4.75;;;;;19.96;72.37;100365.28;4959582;28;45621;-65
2022/10/21 10:41:52;;;;;;;;;6.00;5.50;;;;;19.96;72.25;100375.94;4960123;28;45693;-65
2022/10/21 10:44:29;;;;;;;;;6.75;4.25;;;;;20.05;71.61;100385.22;4959468;28;45347;-63
2022/10/21 10:46:58;;;;;;;;;4.50;3.00;;;;;20.12;72.00;100389.25;4960144;28;45294;-63
2022/10/21 10:49:26;;;;;;;;;4.25;4.00;;;;;20.18;71.75;100373.81;4960321;28;45540;-63
2022/10/21 10:52:09;;;;;;;;;4.25;3.00;;;;;20.20;71.86;100366.56;4960299;28;45898;-63
2022/10/21 10:54:37;;;;;;;;;5.75;5.00;;;;;20.23;71.17;100371.72;4960438;28;45355;-63
2022/10/21 10:57:10;;;;;;;;;7.00;6.00;;;;;20.28;71.42;100365.13;4960105;28;45611;-63
2022/10/21 10:59:47;;;;;;;;;3.00;3.00;;;;;20.34;70.96;100371.94;4959408;28;45333;-63
2022/10/21 11:02:37;;;;;;;;;5.00;4.75;;;;;20.36;70.18;100367.34;4960428;28;46345;-63
2022/10/21 11:05:30;;;;;;;;;7.50;7.00;;;;;20.37;69.86;100362.88;4960404;28;45330;-63
2022/10/21 11:08:11;;;;;;;;;4.75;4.50;;;;;20.47;69.78;100369.34;4960476;28;45537;-62
2022/10/21 11:10:53;;;;;;;;;4.25;3.50;;;;;20.56;69.27;100365.25;4960625;28;45380;-62
2022/10/21 11:13:20;;;;;;;;;5.75;4.75;;;;;20.65;69.95;100361.16;4960261;28;46963;-62
2022/10/21 11:16:04;;;;;;;;;7.00;4.00;;;;;20.76;69.88;100362.22;4960318;28;45591;-62
2022/10/21 11:18:36;;;;;;;;;6.00;6.00;;;;;20.81;69.63;100355.75;4960665;28;45296;-60
2022/10/21 11:21:23;;;;;;;;;5.50;4.00;;;;;20.89;69.16;100356.97;4958781;28;45908;-62
2022/10/21 11:23:59;;;;;;;;;3.00;3.00;;;;;20.96;68.45;100362.78;4960308;28;45288;-62
2022/10/21 11:26:55;;;;;;;;;9.75;5.25;;;;;21.13;68.22;100358.16;4960257;28;45376;-62
2022/10/21 11:29:26;;;;;;;;;4.00;3.75;;;;;21.19;67.79;100353.28;4960492;28;45527;-62
2022/10/21 11:32:03;;;;;;;;;2.25;2.25;;;;;21.20;67.95;100360.34;4960349;28;45230;-62
2022/10/21 11:34:57;;;;;;;;;3.25;3.25;;;;;21.25;67.59;100360.91;4947634;28;46204;-62
2022/10/21 11:37:48;;;;;;;;;5.00;5.00;;;;;21.37;67.74;100363.72;4959968;28;45175;-62
2022/10/21 11:40:38;;;;;;;;;3.75;3.00;;;;;21.41;67.69;100368.78;4962039;28;45358;-62
2022/10/21 11:43:40;;;;;;;;;3.33;3.33;;;;;21.46;66.97;100378.28;4963743;28;45309;-62
2022/10/21 11:46:13;;;;;;;;;5.00;4.00;;;;;21.52;66.99;100377.91;4963653;28;46238;-62
2022/10/21 11:48:51;;;;;;;;;2.00;2.00;;;;;21.55;66.59;100373.25;4963146;28;45312;-62
2022/10/21 11:51:42;;;;;;;;;5.00;3.33;;;;;21.61;66.01;100377.34;4963467;28;45174;-62
2022/10/21 11:54:37;;;;;;;;;5.00;3.00;;;;;21.68;66.26;100369.75;4963580;28;45305;-61
2022/10/21 11:57:16;;;;;;;;;2.00;1.00;;;;;21.69;65.87;100364.28;4963162;28;46603;-62
2022/10/21 11:59:59;;;;;;;;;4.75;3.00;;;;;21.78;65.54;100362.81;4963170;28;45278;-62
2022/10/21 12:02:43;;;;;;;;;2.00;2.00;;;;;21.89;65.31;100357.59;4963483;28;45420;-62
2022/10/21 12:05:33;;;;;;;;;4.67;2.67;;;;;21.99;65.10;100359.69;4963244;28;45407;-59
2022/10/21 12:08:10;;;;;;;;;2.00;2.00;;;;;22.00;65.15;100356.88;4963019;28;46441;-62
2022/10/21 12:10:52;;;;;;;;;3.67;2.00;;;;;22.13;64.88;100358.72;4963246;28;45309;-61
2022/10/21 12:13:26;;;;;;;;;3.33;2.33;;;;;22.23;64.26;100365.16;4963142;28;45310;-61
2022/10/21 12:16:06;;;;;;;;;5.25;3.25;;;;;22.32;64.06;100359.16;4962935;28;45431;-59
2022/10/21 12:18:41;;;;;;;;;4.67;3.00;;;;;22.33;63.90;100355.50;4962938;28;45495;-61
2022/10/21 12:21:14;;;;;;;;;6.25;3.25;;;;;22.42;63.57;100342.50;4962690;28;45290;-60
2022/10/21 12:23:40;;;;;;;;;3.25;2.75;;;;;22.49;63.64;100341.06;4963224;28;45260;-61
2022/10/21 12:26:23;;;;;;;;;5.00;3.00;;;;;22.49;63.11;100344.63;4962811;28;45464;-61
2022/10/21 12:28:57;;;;;;;;;6.33;3.00;;;;;22.56;63.19;100342.34;4962981;28;46478;-61
2022/10/21 12:31:32;;;;;;;;;3.00;1.33;;;;;22.63;62.26;100338.28;4962856;28;45520;-58
2022/10/21 12:33:57;;;;;;;;;6.25;2.00;;;;;22.68;61.92;100333.47;4962813;28;45469;-60
2022/10/21 12:36:23;;;;;;;;;1.00;1.00;;;;;22.71;62.38;100335.06;4962634;28;45314;-60
2022/10/21 12:38:49;;;;;;;;;2.33;1.00;;;;;22.72;61.47;100332.25;4961402;28;47460;-61
2022/10/21 12:41:24;;;;;;;;;2.00;2.00;;;;;22.73;61.17;100333.97;4962972;28;45325;-60
2022/10/21 12:44:01;;;;;;;;;2.00;2.00;;;;;22.75;60.68;100335.69;4962699;28;45424;-60
2022/10/21 12:46:45;;;;;;;;;2.00;1.33;;;;;22.76;60.75;100332.06;4962565;28;45432;-60
2022/10/21 12:49:23;;;;;;;;;4.00;2.00;;;;;22.72;60.17;100342.97;4962670;28;45358;-60
2022/10/21 12:51:53;;;;;;;;;1.00;1.00;;;;;22.72;60.16;100340.28;4961262;28;45523;-60
2022/10/21 12:54:21;;;;;;;;;4.00;2.75;;;;;22.70;60.01;100334.22;4962682;28;45303;-60
2022/10/21 12:56:49;;;;;;;;;2.67;1.00;;;;;22.70;59.82;100333.34;4962188;28;45609;-60
2022/10/21 12:59:38;;;;;;;;;1.33;1.33;;;;;22.67;59.65;100329.06;4961035;28;47449;-60
2022/10/21 13:02:03;;;;;;;;;4.00;2.00;;;;;22.70;60.01;100336.88;4962220;28;45276;-60
2022/10/21 13:04:31;;;;;;;;;3.00;1.00;;;;;22.69;59.48;100331.63;4961228;28;45292;-60
2022/10/21 13:07:00;;;;;;;;;1.33;1.33;;;;;22.74;59.15;100324.13;4962144;28;45378;-60
2022/10/21 13:09:36;;;;;;;;;4.00;1.00;;;;;22.79;58.78;100327.34;4962310;28;46370;-60
2022/10/21 13:12:21;;;;;;;;;2.00;1.33;;;;;22.81;57.96;100327.22;4962268;28;45260;-60
2022/10/21 13:15:00;;;;;;;;;1.67;1.00;;;;;22.75;58.26;100320.47;4954963;28;45221;-61
2022/10/21 13:17:29;;;;;;;;;1.00;0.00;;;;;22.71;58.19;100325.19;4962225;28;45464;-60
2022/10/21 13:20:19;;;;;;;;;0.67;0.00;;;;;22.77;57.81;100325.75;4961931;28;46071;-60
2022/10/21 13:22:56;;;;;;;;;1.33;0.00;;;;;22.71;57.85;100311.81;4960579;28;45285;-60
2022/10/21 13:25:30;;;;;;;;;2.33;1.00;;;;;22.76;57.95;100308.78;4962311;28;45328;-60
2022/10/21 13:28:06;;;;;;;;;1.33;1.00;;;;;22.77;57.69;100301.63;4962043;28;45307;-61
2022/10/21 13:30:56;;;;;;;;;4.25;1.25;;;;;22.75;58.03;100309.75;4961875;28;45381;-61
2022/10/21 13:33:25;;;;;;;;;1.00;1.00;;;;;22.72;58.02;100318.03;4953807;28;45320;-60
2022/10/21 13:36:11;;;;;;;;;1.00;1.00;;;;;22.68;57.54;100306.69;4961639;28;45444;-60
2022/10/21 13:38:48;;;;;;;;;3.00;0.00;;;;;22.76;57.59;100322.19;4961754;28;45273;-60
2022/10/21 13:41:26;;;;;;;;;2.33;1.67;;;;;22.74;57.06;100321.44;4961734;28;46223;-60
2022/10/21 13:43:57;;;;;;;;;3.00;2.00;;;;;22.76;56.61;100308.78;4961841;28;45183;-60
2022/10/21 13:46:30;;;;;;;;;1.67;1.00;;;;;22.79;56.73;100310.41;4961767;28;45320;-60
2022/10/21 13:48:59;;;;;;;;;3.00;1.00;;;;;22.73;56.44;100317.06;4961804;28;45523;-60
2022/10/21 13:51:48;;;;;;;;;3.50;1.00;;;;;22.67;56.49;100309.47;4961281;28;45520;-60
2022/10/21 13:54:15;;;;;;;;;3.00;1.00;;;;;22.64;56.21;100313.22;4961134;28;45241;-60
2022/10/21 13:56:41;;;;;;;;;4.00;1.25;;;;;22.60;56.37;100311.72;4961529;28;45410;-60
2022/10/21 13:59:23;;;;;;;;;3.33;2.00;;;;;22.60;56.50;100300.16;4961758;28;45323;-60
2022/10/21 14:01:52;;;;;;;;;3.00;1.00;;;;;22.53;56.52;100307.78;4959971;28;47010;-60
2022/10/21 14:04:21;;;;;;;;;1.00;0.33;;;;;22.52;56.40;100308.75;4961476;28;45468;-60
2022/10/21 14:06:57;;;;;;;;;2.00;1.00;;;;;22.42;56.26;100299.66;4961415;28;45246;-60
2022/10/21 14:09:27;;;;;;;;;2.00;1.00;;;;;22.46;56.59;100306.50;4961381;28;45308;-60
2022/10/21 14:11:59;;;;;;;;;1.33;1.33;;;;;22.39;56.82;100306.09;4960693;28;45433;-60
2022/10/21 14:14:26;;;;;;;;;1.00;1.00;;;;;22.38;56.84;100309.72;4961232;28;45179;-60
2022/10/21 14:16:56;;;;;;;;;0.67;0.00;;;;;22.37;56.99;100324.06;4961449;28;45311;-59
2022/10/21 14:19:27;;;;;;;;;2.67;2.33;;;;;22.39;56.24;100311.44;4961114;28;45160;-59
2022/10/21 14:21:55;;;;;;;;;5.00;3.50;;;;;22.38;56.49;100307.91;4960906;28;45347;-60
2022/10/21 14:24:36;;;;;;;;;3.75;2.00;;;;;;;;4961087;28;45298;-60
2022/10/21 14:27:03;;;;;;;;;2.25;1.75;;;;;22.26;56.63;100307.88;4959909;28;45437;-60
2022/10/21 14:29:32;;;;;;;;;3.75;1.00;;;;;22.26;56.30;100308.72;4961014;28;45282;-60
2022/10/21 14:31:58;;;;;;;;;4.75;1.25;;;;;22.22;56.66;100305.41;4960822;28;46128;-60
2022/10/21 14:34:29;;;;;;;;;4.50;2.75;;;;;22.15;56.76;100301.47;4948564;28;45582;-59
2022/10/21 14:37:04;;;;;;;;;1.00;1.00;;;;;22.14;56.69;100309.56;4960762;28;45320;-59
2022/10/21 14:39:31;;;;;;;;;3.25;2.50;;;;;22.06;57.02;100302.09;4961291;28;45306;-60
2022/10/21 14:42:03;;;;;;;;;4.75;3.00;;;;;22.04;57.01;100312.91;4960507;28;45242;-59
2022/10/21 14:44:30;;;;;;;;;2.00;1.00;;;;;21.94;57.46;100303.81;4959595;28;45448;-59
2022/10/21 14:46:55;;;;;;;;;1.25;1.25;;;;;21.89;57.17;100311.28;4959492;28;45250;-59
2022/10/21 14:49:34;;;;;;;;;3.00;2.00;;;;;21.89;56.89;100317.50;4960916;28;45259;-59
2022/10/21 14:52:03;;;;;;;;;1.50;1.00;;;;;21.80;56.96;100317.25;4960560;28;45316;-59
2022/10/21 14:54:43;;;;;;;;;5.50;2.75;;;;;21.77;57.42;100320.16;4960874;28;45319;-59
2022/10/21 14:57:19;;;;;;;;;4.00;3.00;;;;;21.66;57.10;100319.06;4960701;28;45345;-59
2022/10/21 14:59:49;;;;;;;;;2.25;1.00;;;;;21.65;57.40;100329.88;4960709;28;45242;-59
2022/10/21 15:02:20;;;;;;;;;2.00;2.00;;;;;21.60;56.75;100308.78;4960669;28;45425;-59
2022/10/21 15:04:53;;;;;;;;;2.33;1.00;;;;;21.62;57.25;100322.88;4960696;28;45214;-59
2022/10/21 15:07:27;;;;;;;;;3.00;2.67;;;;;21.56;56.96;100332.19;4960667;28;45441;-59
2022/10/21 15:10:02;;;;;;;;;3.00;2.00;;;;;21.51;56.92;100320.91;4960429;28;45527;-59
2022/10/21 15:12:51;;;;;;;;;2.00;1.00;;;;;21.45;57.21;100317.81;4960489;28;45402;-59
2022/10/21 15:15:46;;;;;;;;;1.00;0.00;;;;;21.38;57.71;100328.91;4963442;28;45373;-59
2022/10/21 15:18:22;;;;;;;;;2.50;2.50;;;;;21.31;57.59;100324.91;4963955;28;45280;-59
2022/10/21 15:20:54;;;;;;;;;1.00;1.00;;;;;21.27;57.65;100326.09;4963406;28;45440;-59
2022/10/21 15:23:25;;;;;;;;;3.25;3.00;;;;;21.21;57.57;100327.31;4961625;28;47873;-59
2022/10/21 15:26:32;;;;;;;;;0.00;0.00;;;;;21.19;56.98;100321.22;4963604;28;45201;-63
2022/10/21 15:28:58;;;;;;;;;0.00;0.00;;;;;21.19;57.56;100331.91;4963517;28;45222;-59
2022/10/21 15:31:26;;;;;;;;;2.75;1.00;;;;;21.15;57.40;100326.88;4963781;28;45452;-60
2022/10/21 15:33:54;;;;;;;;;2.50;1.00;;;;;21.09;57.75;100329.00;4963783;28;45389;-59
2022/10/21 15:36:20;;;;;;;;;3.75;3.00;;;;;21.12;57.67;100333.28;4962159;28;45310;-59
2022/10/21 15:38:46;;;;;;;;;1.33;1.33;;;;;21.06;57.60;100328.34;4963558;28;45314;-59
2022/10/21 15:41:23;;;;;;;;;3.00;2.00;;;;;21.03;57.33;100326.72;4963791;28;45242;-59
2022/10/21 15:44:02;;;;;;;;;2.25;1.25;;;;;21.01;57.68;100327.78;4963492;28;45294;-58
2022/10/21 15:46:44;;;;;;;;;2.33;1.00;;;;;20.98;57.65;100322.63;4962072;28;45364;-59
2022/10/21 15:49:15;;;;;;;;;3.50;1.50;;;;;20.94;57.28;100321.94;4962310;28;45393;-58
2022/10/21 15:51:41;;;;;;;;;2.00;1.00;;;;;20.91;57.67;100319.50;4963295;28;45476;-59
2022/10/21 15:54:06;;;;;;;;;1.50;1.50;;;;;20.92;57.60;100323.88;4963740;28;46189;-59
2022/10/21 15:56:31;;;;;;;;;4.25;3.00;;;;;20.88;57.39;100311.66;4961684;28;45204;-59
2022/10/21 15:58:56;;;;;;;;;12.25;9.75;;;;;20.87;58.01;100312.66;4962348;28;45245;-58
2022/10/21 16:01:22;;;;;;;;;4.25;2.50;;;;;20.84;58.12;100312.81;4963160;28;48355;-59
2022/10/21 16:03:47;;;;;;;;;5.00;4.00;;;;;20.85;57.76;100315.38;4963445;28;46190;-59
2022/10/21 16:06:16;;;;;;;;;3.00;2.00;;;;;20.82;57.54;100312.94;4963031;28;45440;-59
2022/10/21 16:08:42;;;;;;;;;3.25;3.25;;;;;20.81;57.64;100307.69;4963515;28;45377;-59
2022/10/21 16:11:12;;;;;;;;;3.00;2.00;;;;;20.76;57.81;100322.16;4963025;28;45343;-59
2022/10/21 16:13:37;;;;;;;;;4.00;3.00;;;;;20.73;58.00;100316.19;4963347;28;46368;-59
2022/10/21 16:16:04;;;;;;;;;4.00;2.75;;;;;20.70;57.89;100317.19;4962914;28;45426;-58
2022/10/21 16:18:29;;;;;;;;;4.50;3.00;;;;;20.68;58.52;100311.09;4963261;28;45405;-58
2022/10/21 16:20:56;;;;;;;;;3.25;3.00;;;;;20.68;58.12;100316.44;4962671;28;45217;-59
2022/10/21 16:23:22;;;;;;;;;3.75;2.50;;;;;20.63;57.96;100315.88;4963064;28;46224;-58
2022/10/21 16:25:47;;;;;;;;;3.75;2.50;;;;;20.60;58.03;100316.94;4961499;28;45313;-58
2022/10/21 16:28:12;;;;;;;;;5.00;3.50;;;;;20.61;58.15;100323.13;4962983;28;45540;-59
2022/10/21 16:30:38;;;;;;;;;2.00;2.00;;;;;20.58;58.14;100320.66;4961220;28;45594;-58
2022/10/21 16:33:04;;;;;;;;;5.00;2.00;;;;;20.57;58.53;100321.59;4962702;28;45242;-59
2022/10/21 16:35:29;;;;;;;;;5.25;4.50;;;;;20.53;58.23;100325.44;4962586;28;45234;-58